Time;durP1;ratioP1;P1;durP2;ratioP2;P2;SDS_P1;SDS_P2;PMS_P1;PMS_P2;Temp;Humidity;BMP_temperature;BMP_pressure;BME280_temperature;BME280_humidity;BME280_pressure;Samples;Min_cycle;Max_cycle;Signal;HPM_P1;HPM_P2
2022/11/09 00:01:28;;;;;;;9.02;2.50;;;;;;;;;;5051543;28;20460;-67
2022/11/09 00:03:58;;;;;;;9.07;2.67;;;;;;;;;;5051168;28;20089;-67
2022/11/09 00:06:25;;;;;;;6.47;2.25;;;;;;;;;;5051055;28;20045;-67
2022/11/09 00:08:51;;;;;;;6.63;2.42;;;;;;;;;;5051358;28;20044;-67
2022/11/09 00:11:17;;;;;;;6.13;2.50;;;;;;;;;;5050579;28;20045;-67
2022/11/09 00:13:44;;;;;;;5.25;2.08;;;;;;;;;;5051391;28;20045;-67
2022/11/09 00:16:11;;;;;;;7.55;2.35;;;;;;;;;;5051377;28;20415;-67
2022/11/09 00:18:38;;;;;;;6.00;2.10;;;;;;;;;;5051169;28;20044;-67
2022/11/09 00:21:07;;;;;;;6.85;2.20;;;;;;;;;;5051368;28;20041;-67
2022/11/09 00:23:34;;;;;;;5.57;2.03;;;;;;;;;;5051470;28;20045;-67
2022/11/09 00:26:03;;;;;;;5.18;2.03;;;;;;;;;;5050819;28;20119;-67
2022/11/09 00:28:30;;;;;;;5.78;2.35;;;;;;;;;;5051395;28;20510;-67
2022/11/09 00:31:06;;;;;;;6.75;2.30;;;;;;;;;;5051134;28;20041;-67
2022/11/09 00:33:33;;;;;;;7.55;2.13;;;;;;;;;;5050648;28;20041;-67
2022/11/09 00:35:59;;;;;;;4.95;2.00;;;;;;;;;;5051064;28;20044;-67
2022/11/09 00:38:25;;;;;;;6.10;1.85;;;;;;;;;;5051197;28;20037;-67
2022/11/09 00:40:51;;;;;;;9.52;2.47;;;;;;;;;;5050815;28;20048;-67
2022/11/09 00:43:17;;;;;;;8.95;2.38;;;;;;;;;;5051175;28;20051;-67
2022/11/09 00:45:43;;;;;;;7.22;2.10;;;;;;;;;;5050918;28;20402;-67
2022/11/09 00:48:09;;;;;;;8.68;2.22;;;;;;;;;;5050854;28;20037;-67
2022/11/09 00:50:35;;;;;;;5.53;2.00;;;;;;;;;;5051004;28;20391;-67
2022/11/09 00:53:01;;;;;;;6.63;2.28;;;;;;;;;;5051080;28;20507;-67
2022/11/09 00:55:27;;;;;;;6.47;2.30;;;;;;;;;;5050614;28;20124;-67
2022/11/09 00:57:53;;;;;;;7.38;2.28;;;;;;;;;;5051192;28;20186;-67
2022/11/09 01:00:20;;;;;;;7.80;2.58;;;;;;;;;;5051048;28;20060;-67
2022/11/09 01:02:47;;;;;;;10.73;2.53;;;;;;;;;;5050642;28;20045;-67
2022/11/09 01:05:13;;;;;;;4.72;2.40;;;;;;;;;;5050786;28;20045;-67
2022/11/09 01:07:39;;;;;;;7.32;2.67;;;;;;;;;;5050848;28;20041;-67
2022/11/09 01:10:05;;;;;;;6.05;2.10;;;;;;;;;;5050303;28;20132;-67
2022/11/09 01:12:31;;;;;;;6.75;2.13;;;;;;;;;;5050429;28;20061;-67
2022/11/09 01:14:58;;;;;;;7.53;2.40;;;;;;;;;;5050861;28;20033;-67
2022/11/09 01:17:24;;;;;;;11.23;2.40;;;;;;;;;;5050522;28;20041;-67
2022/11/09 01:19:50;;;;;;;6.00;2.97;;;;;;;;;;5051670;28;20036;-67
2022/11/09 01:22:18;;;;;;;10.63;2.35;;;;;;;;;;5054218;28;20052;-67
2022/11/09 01:24:44;;;;;;;5.03;2.38;;;;;;;;;;5054123;28;20044;-67
2022/11/09 01:27:11;;;;;;;8.52;2.28;;;;;;;;;;5054263;28;20041;-67
2022/11/09 01:29:37;;;;;;;7.35;1.90;;;;;;;;;;5054306;28;20048;-67
2022/11/09 01:32:03;;;;;;;8.13;2.55;;;;;;;;;;5053841;28;20127;-67
2022/11/09 01:34:29;;;;;;;11.15;2.40;;;;;;;;;;5054187;28;20146;-67
2022/11/09 01:36:55;;;;;;;7.47;2.88;;;;;;;;;;5053980;28;20037;-67
2022/11/09 01:39:21;;;;;;;8.88;2.15;;;;;;;;;;5053643;28;20519;-67
2022/11/09 01:41:48;;;;;;;5.72;2.05;;;;;;;;;;5054189;28;20041;-67
2022/11/09 01:44:15;;;;;;;7.85;2.50;;;;;;;;;;5054062;28;20040;-67
2022/11/09 01:47:01;;;;;;;7.38;2.33;;;;;;;;;;5053610;28;20130;-67
2022/11/09 01:49:46;;;;;;;8.90;3.00;;;;;;;;;;5053863;28;20499;-67
2022/11/09 01:52:14;;;;;;;9.30;2.15;;;;;;;;;;5053622;28;20041;-67
2022/11/09 01:54:43;;;;;;;8.10;2.83;;;;;;;;;;5053447;28;20040;-67
2022/11/09 01:57:11;;;;;;;7.35;2.22;;;;;;;;;;5053789;28;20033;-67
2022/11/09 01:59:40;;;;;;;8.70;2.33;;;;;;;;;;5053742;28;20101;-67
2022/11/09 02:02:07;;;;;;;8.50;2.15;;;;;;;;;;5053368;28;20431;-67
2022/11/09 02:04:44;;;;;;;6.45;2.10;;;;;;;;;;5053341;28;20056;-67
2022/11/09 02:07:10;;;;;;;6.90;2.45;;;;;;;;;;5053093;28;20029;-67
2022/11/09 02:09:39;;;;;;;9.48;2.50;;;;;;;;;;5052982;28;20039;-67
2022/11/09 02:12:06;;;;;;;7.93;2.28;;;;;;;;;;5053253;28;20059;-67
2022/11/09 02:14:34;;;;;;;7.90;2.15;;;;;;;;;;5053389;28;20052;-67
2022/11/09 02:17:00;;;;;;;9.95;2.78;;;;;;;;;;5053160;28;20131;-67
2022/11/09 02:19:26;;;;;;;11.27;2.53;;;;;;;;;;5053298;28;20041;-67
2022/11/09 02:21:52;;;;;;;6.07;2.47;;;;;;;;;;5053415;28;20049;-67
2022/11/09 02:24:19;;;;;;;8.10;2.72;;;;;;;;;;5052989;28;20037;-67
2022/11/09 02:26:49;;;;;;;5.85;2.30;;;;;;;;;;5052896;28;20067;-67
2022/11/09 02:29:18;;;;;;;9.20;2.45;;;;;;;;;;5053202;28;20044;-67
2022/11/09 02:31:47;;;;;;;9.95;2.35;;;;;;;;;;5052726;28;20108;-66
2022/11/09 02:34:15;;;;;;;10.20;2.17;;;;;;;;;;5053107;28;20029;-66
2022/11/09 02:36:44;;;;;;;5.47;2.25;;;;;;;;;;5052965;28;20049;-66
2022/11/09 02:39:11;;;;;;;9.05;2.25;;;;;;;;;;5052709;28;20040;-66
2022/11/09 02:41:42;;;;;;;10.25;2.17;;;;;;;;;;5052906;28;20033;-66
2022/11/09 02:44:08;;;;;;;6.60;2.22;;;;;;;;;;5052971;28;20419;-66
2022/11/09 02:46:35;;;;;;;7.85;2.22;;;;;;;;;;5052593;28;20036;-66
2022/11/09 02:49:01;;;;;;;5.20;1.95;;;;;;;;;;5052934;28;20381;-66
2022/11/09 02:51:27;;;;;;;8.13;2.10;;;;;;;;;;5052791;28;20036;-66
2022/11/09 02:53:53;;;;;;;7.05;1.92;;;;;;;;;;5052322;28;20421;-66
2022/11/09 02:56:19;;;;;;;7.47;2.17;;;;;;;;;;5052611;28;20051;-66
2022/11/09 02:58:45;;;;;;;9.48;2.63;;;;;;;;;;5052847;28;20029;-66
2022/11/09 03:01:11;;;;;;;7.80;2.28;;;;;;;;;;5052198;28;20119;-66
2022/11/09 03:03:38;;;;;;;8.32;1.92;;;;;;;;;;5052552;28;20138;-66
2022/11/09 03:06:04;;;;;;;7.45;2.15;;;;;;;;;;5052558;28;20075;-66
2022/11/09 03:08:30;;;;;;;9.07;2.20;;;;;;;;;;5052079;28;20387;-66
2022/11/09 03:10:56;;;;;;;7.07;1.88;;;;;;;;;;5052348;28;20102;-66
2022/11/09 03:13:22;;;;;;;7.97;2.22;;;;;;;;;;5051877;28;20072;-66
2022/11/09 03:15:48;;;;;;;9.27;2.13;;;;;;;;;;5051909;28;20045;-66
2022/11/09 03:18:14;;;;;;;9.52;1.88;;;;;;;;;;5052256;28;20083;-66
2022/11/09 03:20:40;;;;;;;10.15;2.13;;;;;;;;;;5052261;28;20506;-66
2022/11/09 03:23:06;;;;;;;13.23;2.42;;;;;;;;;;5050645;28;20075;-66
2022/11/09 03:25:32;;;;;;;7.82;1.95;;;;;;;;;;5052143;28;20159;-66
2022/11/09 03:27:59;;;;;;;8.27;2.45;;;;;;;;;;5052171;28;20032;-66
2022/11/09 03:30:25;;;;;;;8.60;1.85;;;;;;;;;;5051556;28;20037;-66
2022/11/09 03:32:56;;;;;;;8.98;2.83;;;;;;;;;;5051746;28;20041;-66
2022/11/09 03:35:22;;;;;;;8.00;2.17;;;;;;;;;;5051601;28;20048;-66
2022/11/09 03:37:48;;;;;;;11.00;1.88;;;;;;;;;;5051706;28;20037;-66
2022/11/09 03:40:14;;;;;;;6.93;2.13;;;;;;;;;;5052026;28;20036;-66
2022/11/09 03:42:44;;;;;;;7.65;2.08;;;;;;;;;;5051756;28;20126;-66
2022/11/09 03:45:10;;;;;;;13.27;2.10;;;;;;;;;;5051656;28;20037;-66
2022/11/09 03:47:39;;;;;;;7.03;2.25;;;;;;;;;;5051946;28;20051;-66
2022/11/09 03:50:06;;;;;;;12.48;2.40;;;;;;;;;;5051724;28;20041;-66
2022/11/09 03:52:32;;;;;;;10.27;2.50;;;;;;;;;;5051131;28;20044;-66
2022/11/09 03:54:58;;;;;;;11.68;2.20;;;;;;;;;;5050567;28;20040;-66
2022/11/09 03:57:24;;;;;;;6.90;2.20;;;;;;;;;;5051651;28;20063;-66
2022/11/09 03:59:50;;;;;;;9.15;2.10;;;;;;;;;;5051226;28;20037;-66
2022/11/09 04:02:16;;;;;;;9.60;2.17;;;;;;;;;;5051584;28;20095;-66
2022/11/09 04:04:42;;;;;;;8.32;2.10;;;;;;;;;;5051685;28;20041;-66
2022/11/09 04:07:09;;;;;;;12.60;2.60;;;;;;;;;;5051130;28;20068;-66
2022/11/09 04:09:35;;;;;;;10.88;2.55;;;;;;;;;;5050355;28;20140;-66
2022/11/09 04:12:01;;;;;;;11.18;2.33;;;;;;;;;;5051234;28;20136;-66
2022/11/09 04:14:27;;;;;;;7.53;2.10;;;;;;;;;;5051005;28;20139;-66
2022/11/09 04:16:53;;;;;;;10.88;2.60;;;;;;;;;;5051528;28;20044;-66
2022/11/09 04:19:19;;;;;;;11.40;2.20;;;;;;;;;;5051519;28;20515;-66
2022/11/09 04:21:45;;;;;;;9.15;2.83;;;;;;;;;;5051115;28;20041;-66
2022/11/09 04:24:11;;;;;;;7.22;1.90;;;;;;;;;;5051544;28;20048;-66
2022/11/09 04:26:37;;;;;;;10.50;3.03;;;;;;;;;;5050953;28;20049;-66
2022/11/09 04:29:03;;;;;;;7.07;2.15;;;;;;;;;;5050950;28;20476;-66
2022/11/09 04:31:30;;;;;;;7.88;2.33;;;;;;;;;;5051171;28;20036;-66
2022/11/09 04:33:56;;;;;;;7.47;1.77;;;;;;;;;;5050983;28;20045;-66
2022/11/09 04:36:22;;;;;;;8.93;2.63;;;;;;;;;;5050925;28;20041;-66
2022/11/09 04:38:48;;;;;;;11.23;2.45;;;;;;;;;;5051313;28;20032;-66
2022/11/09 04:41:14;;;;;;;8.55;2.15;;;;;;;;;;5051320;28;20043;-66
2022/11/09 04:43:40;;;;;;;9.43;2.30;;;;;;;;;;5050802;28;20450;-66
2022/11/09 04:46:06;;;;;;;13.35;2.60;;;;;;;;;;5050723;28;20051;-66
2022/11/09 04:48:32;;;;;;;9.18;1.95;;;;;;;;;;5051167;28;20507;-66
2022/11/09 04:51:00;;;;;;;8.88;2.63;;;;;;;;;;5050640;28;20044;-66
2022/11/09 04:53:26;;;;;;;8.23;2.38;;;;;;;;;;5049578;28;20124;-66
2022/11/09 04:55:52;;;;;;;8.15;1.90;;;;;;;;;;5053743;28;20041;-66
2022/11/09 04:58:18;;;;;;;9.80;2.25;;;;;;;;;;5054519;28;20426;-66
2022/11/09 05:00:44;;;;;;;11.13;2.35;;;;;;;;;;5054847;28;20072;-66
2022/11/09 05:03:10;;;;;;;7.30;2.30;;;;;;;;;;5054830;28;20045;-66
2022/11/09 05:05:37;;;;;;;8.88;2.05;;;;;;;;;;5054439;28;20037;-66
2022/11/09 05:08:03;;;;;;;13.23;2.38;;;;;;;;;;5054728;28;20049;-66
2022/11/09 05:10:30;;;;;;;5.32;1.85;;;;;;;;;;5054613;28;20403;-66
2022/11/09 05:13:03;;;;;;;8.18;2.10;;;;;;;;;;5053932;28;20136;-66
2022/11/09 05:15:29;;;;;;;8.30;2.00;;;;;;;;;;5054580;28;20095;-66
2022/11/09 05:17:56;;;;;;;11.93;2.00;;;;;;;;;;5054280;28;20045;-66
2022/11/09 05:20:22;;;;;;;10.52;1.95;;;;;;;;;;5053867;28;20037;-66
2022/11/09 05:25:33;;;;;;;7.43;2.50;;;;;;;;;;5054416;28;20045;-66
2022/11/09 05:27:59;;;;;;;8.23;2.30;;;;;;;;;;5054067;28;20128;-66
2022/11/09 05:30:25;;;;;;;4.30;1.83;;;;;;;;;;5054288;28;20545;-66
2022/11/09 05:32:51;;;;;;;7.88;1.88;;;;;;;;;;5054183;28;20524;-66
2022/11/09 05:35:17;;;;;;;7.07;2.10;;;;;;;;;;5053571;28;20129;-66
2022/11/09 05:37:46;;;;;;;7.80;1.88;;;;;;;;;;5054225;28;20045;-66
2022/11/09 05:40:12;;;;;;;10.57;2.30;;;;;;;;;;5054200;28;20041;-66
2022/11/09 05:42:39;;;;;;;7.70;2.40;;;;;;;;;;5053896;28;20045;-66
2022/11/09 05:45:05;;;;;;;8.07;2.40;;;;;;;;;;5053868;28;20476;-66
2022/11/09 05:47:36;;;;;;;9.95;2.25;;;;;;;;;;5054175;28;20041;-66
2022/11/09 05:50:02;;;;;;;13.13;2.78;;;;;;;;;;5053508;28;20084;-66
2022/11/09 05:52:28;;;;;;;10.18;3.03;;;;;;;;;;5053993;28;20052;-66
2022/11/09 05:54:54;;;;;;;8.75;2.00;;;;;;;;;;5053764;28;20052;-66
2022/11/09 05:57:20;;;;;;;9.95;2.08;;;;;;;;;;5053313;28;20047;-66
2022/11/09 05:59:46;;;;;;;10.15;1.98;;;;;;;;;;5053530;28;20119;-66
2022/11/09 06:02:12;;;;;;;10.35;2.05;;;;;;;;;;5053697;28;20045;-66
2022/11/09 06:04:38;;;;;;;8.38;2.13;;;;;;;;;;5053270;28;20037;-66
2022/11/09 06:07:04;;;;;;;6.10;2.42;;;;;;;;;;5052778;28;20033;-66
2022/11/09 06:09:30;;;;;;;9.27;2.50;;;;;;;;;;5053244;28;20045;-66
2022/11/09 06:11:56;;;;;;;6.25;1.88;;;;;;;;;;5052930;28;20059;-66
2022/11/09 06:14:22;;;;;;;11.65;2.17;;;;;;;;;;5053368;28;20056;-66
2022/11/09 06:16:48;;;;;;;11.63;2.80;;;;;;;;;;5053430;28;20044;-66
2022/11/09 06:19:14;;;;;;;8.10;2.22;;;;;;;;;;5053036;28;20040;-66
2022/11/09 06:21:40;;;;;;;7.75;2.10;;;;;;;;;;5053265;28;20072;-66
2022/11/09 06:24:06;;;;;;;7.85;1.88;;;;;;;;;;5053385;28;20399;-66
2022/11/09 06:26:32;;;;;;;7.03;2.83;;;;;;;;;;5053046;28;20040;-66
2022/11/09 06:28:58;;;;;;;7.47;1.92;;;;;;;;;;5052971;28;20399;-66
2022/11/09 06:31:24;;;;;;;9.98;2.22;;;;;;;;;;5053005;28;20044;-66
2022/11/09 06:33:50;;;;;;;6.60;1.98;;;;;;;;;;5052817;28;20658;-66
2022/11/09 06:36:17;;;;;;;9.70;2.10;;;;;;;;;;5052448;28;20044;-66
2022/11/09 06:38:43;;;;;;;9.98;2.00;;;;;;;;;;5053174;28;20047;-66
2022/11/09 06:41:09;;;;;;;13.13;1.88;;;;;;;;;;5052941;28;20353;-66
2022/11/09 06:43:35;;;;;;;10.63;2.88;;;;;;;;;;5052709;28;20118;-66
2022/11/09 06:46:03;;;;;;;7.20;2.30;;;;;;;;;;5052930;28;20087;-66
2022/11/09 06:48:29;;;;;;;14.48;2.17;;;;;;;;;;5052981;28;20053;-66
2022/11/09 06:50:58;;;;;;;7.05;1.85;;;;;;;;;;5052156;28;20060;-66
2022/11/09 06:53:26;;;;;;;11.00;1.92;;;;;;;;;;5052547;28;20048;-66
2022/11/09 06:55:52;;;;;;;9.43;2.08;;;;;;;;;;5052475;28;20053;-66
2022/11/09 06:58:19;;;;;;;10.60;1.90;;;;;;;;;;5052229;28;20503;-66
2022/11/09 07:00:45;;;;;;;8.52;1.90;;;;;;;;;;5052515;28;20049;-66
2022/11/09 07:03:15;;;;;;;7.38;1.95;;;;;;;;;;5052615;28;20041;-66
2022/11/09 07:05:41;;;;;;;8.63;1.90;;;;;;;;;;5051707;28;20095;-66
2022/11/09 07:08:07;;;;;;;12.93;2.60;;;;;;;;;;5052470;28;20076;-66
2022/11/09 07:10:33;;;;;;;8.13;1.63;;;;;;;;;;5052119;28;20713;-66
2022/11/09 07:12:59;;;;;;;12.32;1.90;;;;;;;;;;5051435;28;20055;-66
2022/11/09 07:15:25;;;;;;;9.90;1.80;;;;;;;;;;5051868;28;20080;-66
2022/11/09 07:17:51;;;;;;;12.55;2.25;;;;;;;;;;5051505;28;20138;-66
2022/11/09 07:20:17;;;;;;;10.80;2.05;;;;;;;;;;5051666;28;20043;-66
2022/11/09 07:22:43;;;;;;;12.95;2.42;;;;;;;;;;5051966;28;20041;-66
2022/11/09 07:25:11;;;;;;;8.60;2.20;;;;;;;;;;5051177;28;20045;-66
2022/11/09 07:27:37;;;;;;;9.52;2.05;;;;;;;;;;5050468;28;20443;-66
2022/11/09 07:30:03;;;;;;;11.85;2.60;;;;;;;;;;5051546;28;20041;-67
2022/11/09 07:32:32;;;;;;;10.20;1.98;;;;;;;;;;5051547;28;20043;-67
2022/11/09 07:34:58;;;;;;;11.82;2.65;;;;;;;;;;5050725;28;20047;-67
2022/11/09 07:37:24;;;;;;;10.45;2.40;;;;;;;;;;5038064;28;20518;-66
2022/11/09 07:39:50;;;;;;;10.77;2.13;;;;;;;;;;5048131;28;20033;-67
2022/11/09 07:42:16;;;;;;;11.80;2.35;;;;;;;;;;5042031;28;20029;-66
2022/11/09 07:44:42;;;;;;;13.43;3.05;;;;;;;;;;5043946;28;20083;-67
2022/11/09 07:47:08;;;;;;;8.23;2.20;;;;;;;;;;5048890;28;20090;-66
2022/11/09 07:49:34;;;;;;;10.18;2.28;;;;;;;;;;5049247;28;20040;-66
2022/11/09 07:52:00;;;;;;;16.05;3.05;;;;;;;;;;5050494;28;20508;-66
2022/11/09 07:54:26;;;;;;;12.02;3.08;;;;;;;;;;5050769;28;20041;-66
2022/11/09 07:56:52;;;;;;;15.65;2.78;;;;;;;;;;5049137;28;20041;-66
2022/11/09 07:59:18;;;;;;;16.02;3.13;;;;;;;;;;5049826;28;20045;-66
2022/11/09 08:01:44;;;;;;;9.93;2.17;;;;;;;;;;5050034;28;20041;-66
2022/11/09 08:04:11;;;;;;;14.10;2.60;;;;;;;;;;5049952;28;20045;-66
2022/11/09 08:06:37;;;;;;;10.48;2.30;;;;;;;;;;5048592;28;20084;-66
2022/11/09 08:09:03;;;;;;;10.73;2.17;;;;;;;;;;5048737;28;20094;-66
2022/11/09 08:11:29;;;;;;;6.70;2.08;;;;;;;;;;5049413;28;20102;-65
2022/11/09 08:13:55;;;;;;;16.48;3.47;;;;;;;;;;5045527;28;20514;-65
2022/11/09 08:16:22;;;;;;;12.57;3.00;;;;;;;;;;5049327;28;20943;-65
2022/11/09 08:18:49;;;;;;;11.63;2.58;;;;;;;;;;5048926;28;20086;-65
2022/11/09 08:21:15;;;;;;;10.77;2.70;;;;;;;;;;5049742;28;20090;-65
2022/11/09 08:23:42;;;;;;;11.93;2.38;;;;;;;;;;5050137;28;20136;-65
2022/11/09 08:26:07;;;;;;;9.05;2.60;;;;;;;;;;5049367;28;20391;-65
2022/11/09 08:28:34;;;;;;;12.88;2.60;;;;;;;;;;5050052;28;20041;-65
2022/11/09 08:31:01;;;;;;;13.85;2.97;;;;;;;;;;5051210;28;20418;-65
2022/11/09 08:33:28;;;;;;;13.45;3.33;;;;;;;;;;5053077;28;20085;-65
2022/11/09 08:35:54;;;;;;;14.85;2.90;;;;;;;;;;5053761;28;20037;-65
2022/11/09 08:38:20;;;;;;;12.90;2.88;;;;;;;;;;5052155;28;20040;-65
2022/11/09 08:40:46;;;;;;;15.93;2.72;;;;;;;;;;5052613;28;20037;-65
2022/11/09 08:43:12;;;;;;;13.05;2.83;;;;;;;;;;5052403;28;20174;-65
2022/11/09 08:45:39;;;;;;;13.57;3.13;;;;;;;;;;5052854;28;20075;-65
2022/11/09 08:48:06;;;;;;;13.23;3.55;;;;;;;;;;5042144;28;20464;-65
2022/11/09 08:50:33;;;;;;;15.07;3.45;;;;;;;;;;5040695;28;20037;-65
2022/11/09 08:52:59;;;;;;;10.85;2.50;;;;;;;;;;5051128;28;20048;-65
2022/11/09 08:55:26;;;;;;;10.77;2.97;;;;;;;;;;5055584;28;20651;-66
2022/11/09 08:57:56;;;;;;;10.48;2.20;;;;;;;;;;5053643;28;20087;-66
2022/11/09 09:00:23;;;;;;;12.43;2.42;;;;;;;;;;5052445;28;20047;-66
2022/11/09 09:02:49;;;;;;;15.55;2.40;;;;;;;;;;5052362;28;20670;-65
2022/11/09 09:05:15;;;;;;;12.57;2.75;;;;;;;;;;5051091;28;20049;-65
2022/11/09 09:07:41;;;;;;;12.98;2.83;;;;;;;;;;5052423;28;20087;-66
2022/11/09 09:10:07;;;;;;;12.27;2.60;;;;;;;;;;5051987;28;20049;-65
2022/11/09 09:12:33;;;;;;;9.77;2.78;;;;;;;;;;5050232;28;20144;-65
2022/11/09 09:14:59;;;;;;;16.45;3.05;;;;;;;;;;5051786;28;20049;-65
2022/11/09 09:17:25;;;;;;;7.97;2.38;;;;;;;;;;5052135;28;20033;-67
2022/11/09 09:19:52;;;;;;;15.88;3.40;;;;;;;;;;5051324;28;20083;-67
2022/11/09 09:22:18;;;;;;;11.73;2.42;;;;;;;;;;5052297;28;20045;-66
2022/11/09 09:24:44;;;;;;;8.32;2.60;;;;;;;;;;5051920;28;20052;-66
2022/11/09 09:27:10;;;;;;;17.85;3.80;;;;;;;;;;5051640;28;20045;-66
2022/11/09 09:29:36;;;;;;;20.80;3.30;;;;;;;;;;5049207;28;20047;-66
2022/11/09 09:32:03;;;;;;;11.48;3.33;;;;;;;;;;5052434;28;20036;-66
2022/11/09 09:34:29;;;;;;;13.38;3.00;;;;;;;;;;5053804;28;20052;-66
2022/11/09 09:36:55;;;;;;;11.95;3.50;;;;;;;;;;5051674;28;20041;-66
2022/11/09 09:39:21;;;;;;;11.57;3.33;;;;;;;;;;5050693;28;20087;-66
2022/11/09 09:41:57;;;;;;;11.52;3.00;;;;;;;;;;5051206;28;20116;-66
2022/11/09 09:44:28;;;;;;;11.30;3.03;;;;;;;;;;5039762;28;20060;-67
2022/11/09 09:47:06;;;;;;;14.05;3.65;;;;;;;;;;5051839;28;20483;-66
2022/11/09 09:49:34;;;;;;;22.40;3.65;;;;;;;;;;5051892;28;20865;-66
2022/11/09 09:52:03;;;;;;;14.07;3.22;;;;;;;;;;5050630;28;20037;-66
2022/11/09 09:54:31;;;;;;;12.68;3.00;;;;;;;;;;5052257;28;20052;-66
2022/11/09 09:56:59;;;;;;;17.27;3.33;;;;;;;;;;5051954;28;20033;-66
2022/11/09 09:59:45;;;;;;;8.68;3.08;;;;;;;;;;5050793;28;20044;-66
2022/11/09 10:02:18;;;;;;;14.23;3.13;;;;;;;;;;5026073;28;20052;-68
2022/11/09 10:04:44;;;;;;;16.50;3.67;;;;;;;;;;5052271;28;20048;-68
2022/11/09 10:07:16;;;;;;;11.90;2.65;;;;;;;;;;5051613;28;20033;-65
2022/11/09 10:09:51;;;;;;;9.50;2.65;;;;;;;;;;5051707;28;20132;-65
2022/11/09 10:12:22;;;;;;;10.75;2.78;;;;;;;;;;5045576;28;20056;-65
2022/11/09 10:15:14;;;;;;;12.57;3.00;;;;;;;;;;5032748;28;20060;-65
2022/11/09 10:17:59;;;;;;;14.98;3.20;;;;;;;;;;5037502;28;20287;-65
2022/11/09 10:20:45;;;;;;;14.85;3.70;;;;;;;;;;5051663;28;20041;-65
2022/11/09 10:23:22;;;;;;;12.32;3.30;;;;;;;;;;5052511;28;20045;-65
2022/11/09 10:25:52;;;;;;;11.20;2.88;;;;;;;;;;5051720;28;20040;-65
2022/11/09 10:28:20;;;;;;;11.05;3.17;;;;;;;;;;5050603;28;20052;-65
2022/11/09 10:30:46;;;;;;;12.07;3.42;;;;;;;;;;5051224;28;20049;-66
2022/11/09 10:33:12;;;;;;;11.40;2.90;;;;;;;;;;5050202;28;20052;-65
2022/11/09 10:35:48;;;;;;;13.85;3.55;;;;;;;;;;5052595;28;20037;-65
2022/11/09 10:38:35;;;;;;;10.45;2.80;;;;;;;;;;5051438;28;20035;-65
2022/11/09 10:41:10;;;;;;;13.00;3.33;;;;;;;;;;5050965;28;20044;-65
2022/11/09 10:43:36;;;;;;;13.30;3.03;;;;;;;;;;5051945;28;20055;-66
2022/11/09 10:46:04;;;;;;;11.90;3.10;;;;;;;;;;5050525;28;20041;-66
2022/11/09 10:48:37;;;;;;;9.43;3.10;;;;;;;;;;5051202;28;20049;-66
2022/11/09 10:51:03;;;;;;;9.05;2.80;;;;;;;;;;5051485;28;20048;-66
2022/11/09 10:53:30;;;;;;;6.90;2.30;;;;;;;;;;5049770;28;20040;-65
2022/11/09 10:56:15;;;;;;;12.23;3.40;;;;;;;;;;5045073;28;20715;-65
2022/11/09 10:58:48;;;;;;;12.10;3.45;;;;;;;;;;5050447;28;20660;-65
2022/11/09 11:01:17;;;;;;;14.02;3.25;;;;;;;;;;5047318;28;20033;-65
2022/11/09 11:03:44;;;;;;;13.80;3.17;;;;;;;;;;5050712;28;20049;-65
2022/11/09 11:06:17;;;;;;;12.60;2.95;;;;;;;;;;5050522;28;20040;-65
2022/11/09 11:08:45;;;;;;;9.90;2.97;;;;;;;;;;5050613;28;20037;-65
2022/11/09 11:11:31;;;;;;;16.70;3.10;;;;;;;;;;5051062;28;20045;-65
2022/11/09 11:14:09;;;;;;;11.32;2.95;;;;;;;;;;5051658;28;20099;-65
2022/11/09 11:16:36;;;;;;;14.75;3.42;;;;;;;;;;5051259;28;20037;-65
2022/11/09 11:19:02;;;;;;;13.23;3.13;;;;;;;;;;5052057;28;20029;-65
2022/11/09 11:21:29;;;;;;;14.65;3.47;;;;;;;;;;5051741;28;20076;-65
2022/11/09 11:24:07;;;;;;;14.85;3.13;;;;;;;;;;5051342;28;20106;-65
2022/11/09 11:26:56;;;;;;;12.35;3.08;;;;;;;;;;5048971;28;20041;-65
2022/11/09 11:29:40;;;;;;;9.73;2.97;;;;;;;;;;5051400;28;20048;-65
2022/11/09 11:32:09;;;;;;;13.57;2.92;;;;;;;;;;5049338;28;20048;-65
2022/11/09 11:34:36;;;;;;;10.15;3.05;;;;;;;;;;5051397;28;20041;-65
2022/11/09 11:37:02;;;;;;;15.30;2.90;;;;;;;;;;5051754;28;20044;-65
2022/11/09 11:40:00;;;;;;;10.57;2.60;;;;;;;;;;5051028;28;20487;-65
2022/11/09 11:42:26;;;;;;;8.95;2.45;;;;;;;;;;5028488;28;20049;-65
2022/11/09 11:44:55;;;;;;;16.70;2.67;;;;;;;;;;5051128;28;20037;-65
2022/11/09 11:47:25;;;;;;;11.77;2.65;;;;;;;;;;5051713;28;20037;-65
2022/11/09 11:50:27;;;;;;;10.15;2.85;;;;;;;;;;5051130;28;20040;-65
2022/11/09 11:53:07;;;;;;;13.95;2.58;;;;;;;;;;4995628;28;20045;-65
2022/11/09 11:55:47;;;;;;;9.80;2.50;;;;;;;;;;5046934;28;20380;-65
2022/11/09 11:58:28;;;;;;;12.70;2.70;;;;;;;;;;5050867;28;20144;-65
2022/11/09 12:01:00;;;;;;;8.95;2.33;;;;;;;;;;5049782;28;20067;-65
2022/11/09 12:03:33;;;;;;;10.27;2.25;;;;;;;;;;5050640;28;20480;-65
2022/11/09 12:06:13;;;;;;;12.50;2.50;;;;;;;;;;5050819;28;20079;-65
2022/11/09 12:08:39;;;;;;;13.68;2.45;;;;;;;;;;5050867;28;20047;-65
2022/11/09 12:11:09;;;;;;;13.02;2.47;;;;;;;;;;5051284;28;20048;-65
2022/11/09 12:13:47;;;;;;;12.55;3.03;;;;;;;;;;5050446;28;20119;-65
2022/11/09 12:16:33;;;;;;;12.70;3.00;;;;;;;;;;5050716;28;20040;-65
2022/11/09 12:19:05;;;;;;;13.40;3.03;;;;;;;;;;5051316;28;20048;-65
2022/11/09 12:21:57;;;;;;;9.05;2.65;;;;;;;;;;5049827;28;20045;-65
2022/11/09 12:24:43;;;;;;;12.43;2.53;;;;;;;;;;5047943;28;20391;-65
2022/11/09 12:27:20;;;;;;;12.55;2.47;;;;;;;;;;5009487;28;20063;-65
2022/11/09 12:30:00;;;;;;;12.20;2.45;;;;;;;;;;5043592;28;20037;-65
2022/11/09 12:32:27;;;;;;;11.48;2.65;;;;;;;;;;5050552;28;20041;-65
2022/11/09 12:35:12;;;;;;;9.27;2.40;;;;;;;;;;5051203;28;20037;-65
2022/11/09 12:37:41;;;;;;;6.10;2.30;;;;;;;;;;5050337;28;20052;-64
2022/11/09 12:40:21;;;;;;;11.65;2.63;;;;;;;;;;5050841;28;20079;-65
2022/11/09 12:42:53;;;;;;;11.20;2.10;;;;;;;;;;5050888;28;20060;-65
2022/11/09 12:45:29;;;;;;;8.85;2.08;;;;;;;;;;5050431;28;20048;-65
2022/11/09 12:47:57;;;;;;;10.23;2.20;;;;;;;;;;5051027;28;20656;-65
2022/11/09 12:50:25;;;;;;;15.85;2.63;;;;;;;;;;5050269;28;20171;-65
2022/11/09 12:52:51;;;;;;;8.70;2.63;;;;;;;;;;5050107;28;20124;-65
2022/11/09 12:55:30;;;;;;;10.48;2.53;;;;;;;;;;5050585;28;20496;-64
2022/11/09 12:57:56;;;;;;;7.85;2.38;;;;;;;;;;5049707;28;20127;-66
2022/11/09 13:00:34;;;;;;;7.70;2.33;;;;;;;;;;5050160;28;20045;-66
2022/11/09 13:03:15;;;;;;;9.20;1.90;;;;;;;;;;5050811;28;20360;-65
2022/11/09 13:05:43;;;;;;;7.03;2.10;;;;;;;;;;5050760;28;20380;-65
2022/11/09 13:08:30;;;;;;;6.07;2.15;;;;;;;;;;5049878;28;20043;-65
2022/11/09 13:11:09;;;;;;;7.53;2.00;;;;;;;;;;5030220;28;20049;-65
2022/11/09 13:13:36;;;;;;;7.47;1.80;;;;;;;;;;5039285;28;20119;-65
2022/11/09 13:16:04;;;;;;;13.02;2.97;;;;;;;;;;5050262;28;20037;-65
2022/11/09 13:18:30;;;;;;;5.40;2.10;;;;;;;;;;5053496;28;20103;-65
2022/11/09 13:20:57;;;;;;;8.20;2.25;;;;;;;;;;5053536;28;20037;-65
2022/11/09 13:23:28;;;;;;;6.25;1.63;;;;;;;;;;5053748;28;20095;-65
2022/11/09 13:25:54;;;;;;;8.38;2.28;;;;;;;;;;5053730;28;20426;-65
2022/11/09 13:28:29;;;;;;;4.78;2.00;;;;;;;;;;5053615;28;20037;-65
2022/11/09 13:31:03;;;;;;;8.77;1.85;;;;;;;;;;5035103;28;20041;-65
2022/11/09 13:33:30;;;;;;;4.93;1.42;;;;;;;;;;5053811;28;20056;-65
2022/11/09 13:35:58;;;;;;;6.10;1.40;;;;;;;;;;5053272;28;20033;-65
2022/11/09 13:38:24;;;;;;;8.98;1.70;;;;;;;;;;5053781;28;20370;-65
2022/11/09 13:40:57;;;;;;;6.70;1.20;;;;;;;;;;5053848;28;20112;-65
2022/11/09 13:43:34;;;;;;;3.75;1.08;;;;;;;;;;5053347;28;20119;-65
2022/11/09 13:46:00;;;;;;;9.30;1.10;;;;;;;;;;5053820;28;20124;-65
2022/11/09 13:48:26;;;;;;;6.65;1.10;;;;;;;;;;5053793;28;20466;-65
2022/11/09 13:50:53;;;;;;;3.58;1.10;;;;;;;;;;5053281;28;20543;-65
2022/11/09 13:53:37;;;;;;;6.57;1.20;;;;;;;;;;5053414;28;20365;-65
2022/11/09 13:56:15;;;;;;;2.55;1.13;;;;;;;;;;5053724;28;20647;-65
2022/11/09 13:58:41;;;;;;;3.20;0.77;;;;;;;;;;5053164;28;20060;-65
2022/11/09 14:01:26;;;;;;;3.80;1.10;;;;;;;;;;5053109;28;20047;-65
2022/11/09 14:03:52;;;;;;;4.22;1.23;;;;;;;;;;5052809;28;20479;-65
2022/11/09 14:06:18;;;;;;;4.25;1.38;;;;;;;;;;5052340;28;20051;-65
2022/11/09 14:08:44;;;;;;;3.30;1.10;;;;;;;;;;5053257;28;20037;-65
2022/11/09 14:11:10;;;;;;;3.05;1.05;;;;;;;;;;5053438;28;20076;-65
2022/11/09 14:13:36;;;;;;;2.50;1.08;;;;;;;;;;5051678;28;20466;-65
2022/11/09 14:16:24;;;;;;;3.42;1.45;;;;;;;;;;5050927;28;20068;-65
2022/11/09 14:18:52;;;;;;;6.53;1.83;;;;;;;;;;5052607;28;20112;-65
2022/11/09 14:21:18;;;;;;;6.38;1.77;;;;;;;;;;5052551;28;20040;-65
2022/11/09 14:23:44;;;;;;;4.57;1.60;;;;;;;;;;5053188;28;20380;-65
2022/11/09 14:26:18;;;;;;;5.72;1.48;;;;;;;;;;5052551;28;20430;-65
2022/11/09 14:28:44;;;;;;;5.72;1.70;;;;;;;;;;5052579;28;20052;-65
2022/11/09 14:31:40;;;;;;;6.13;1.60;;;;;;;;;;5053095;28;20033;-65
2022/11/09 14:34:06;;;;;;;7.63;2.20;;;;;;;;;;5035887;28;20044;-65
2022/11/09 14:36:34;;;;;;;8.68;1.80;;;;;;;;;;5052615;28;20076;-65
2022/11/09 14:39:01;;;;;;;8.35;2.10;;;;;;;;;;5051250;28;20056;-65
2022/11/09 14:41:27;;;;;;;7.22;2.17;;;;;;;;;;5052590;28;20116;-65
2022/11/09 14:43:55;;;;;;;7.32;1.77;;;;;;;;;;5052089;28;20041;-65
2022/11/09 14:46:28;;;;;;;11.57;2.30;;;;;;;;;;5052632;28;20094;-65
2022/11/09 14:48:55;;;;;;;7.07;1.80;;;;;;;;;;5051276;28;20052;-65
2022/11/09 14:51:23;;;;;;;6.78;2.00;;;;;;;;;;5051764;28;20143;-65